sensor_id;sensor_type;location;lat;lon;timestamp;pressure;altitude;pressure_sealevel;temperature;humidity
48810;BME280;40070;47.322;18.784;2023-03-04T00:00:33;1004.48;;;3.80;55.16
48810;BME280;40070;47.322;18.784;2023-03-04T00:02:36;1004.41;;;3.94;54.64
48810;BME280;40070;47.322;18.784;2023-03-04T00:04:38;1004.44;;;3.93;54.43
48810;BME280;40070;47.322;18.784;2023-03-04T00:06:40;1004.43;;;3.89;54.88
48810;BME280;40070;47.322;18.784;2023-03-04T00:08:43;1004.42;;;4.01;54.82
48810;BME280;40070;47.322;18.784;2023-03-04T00:10:45;1004.38;;;3.95;54.95
48810;BME280;40070;47.322;18.784;2023-03-04T00:12:47;1004.47;;;3.91;55.06
48810;BME280;40070;47.322;18.784;2023-03-04T00:14:50;1004.58;;;3.69;55.54
48810;BME280;40070;47.322;18.784;2023-03-04T00:16:52;1004.54;;;3.75;55.42
48810;BME280;40070;47.322;18.784;2023-03-04T00:18:55;1004.50;;;3.74;55.58
48810;BME280;40070;47.322;18.784;2023-03-04T00:20:57;1004.46;;;3.79;55.55
48810;BME280;40070;47.322;18.784;2023-03-04T00:23:00;1004.48;;;3.86;55.13
48810;BME280;40070;47.322;18.784;2023-03-04T00:25:02;1004.48;;;3.90;54.98
48810;BME280;40070;47.322;18.784;2023-03-04T00:27:04;1004.48;;;3.98;54.90
48810;BME280;40070;47.322;18.784;2023-03-04T00:29:07;1004.48;;;3.95;54.93
48810;BME280;40070;47.322;18.784;2023-03-04T00:31:09;1004.45;;;4.06;54.84
48810;BME280;40070;47.322;18.784;2023-03-04T00:33:12;1004.45;;;3.97;54.91
48810;BME280;40070;47.322;18.784;2023-03-04T00:35:14;1004.45;;;3.82;55.32
48810;BME280;40070;47.322;18.784;2023-03-04T00:37:17;1004.48;;;3.89;54.98
48810;BME280;40070;47.322;18.784;2023-03-04T00:39:19;1004.48;;;3.27;56.66
48810;BME280;40070;47.322;18.784;2023-03-04T00:41:21;1004.41;;;3.21;57.02
48810;BME280;40070;47.322;18.784;2023-03-04T00:43:24;1004.44;;;3.27;56.73
48810;BME280;40070;47.322;18.784;2023-03-04T00:45:26;1004.43;;;3.32;56.55
48810;BME280;40070;47.322;18.784;2023-03-04T00:47:28;1004.39;;;3.38;56.46
48810;BME280;40070;47.322;18.784;2023-03-04T00:49:31;1004.37;;;3.02;57.44
48810;BME280;40070;47.322;18.784;2023-03-04T00:51:33;1004.46;;;2.76;58.19
48810;BME280;40070;47.322;18.784;2023-03-04T00:53:35;1004.38;;;2.69;58.30
48810;BME280;40070;47.322;18.784;2023-03-04T00:55:38;1004.32;;;2.92;58.08
48810;BME280;40070;47.322;18.784;2023-03-04T00:57:40;1004.27;;;3.43;56.71
48810;BME280;40070;47.322;18.784;2023-03-04T00:59:42;1004.22;;;3.57;56.16
48810;BME280;40070;47.322;18.784;2023-03-04T01:01:45;1004.22;;;3.42;55.94
48810;BME280;40070;47.322;18.784;2023-03-04T01:03:47;1004.20;;;3.41;55.60
48810;BME280;40070;47.322;18.784;2023-03-04T01:05:50;1004.21;;;3.39;55.35
48810;BME280;40070;47.322;18.784;2023-03-04T01:07:52;1004.20;;;3.18;55.66
48810;BME280;40070;47.322;18.784;2023-03-04T01:09:54;1004.18;;;3.22;55.38
48810;BME280;40070;47.322;18.784;2023-03-04T01:11:57;1004.16;;;3.19;55.49
48810;BME280;40070;47.322;18.784;2023-03-04T01:13:59;1004.16;;;3.14;55.70
48810;BME280;40070;47.322;18.784;2023-03-04T01:16:02;1004.14;;;3.30;55.32
48810;BME280;40070;47.322;18.784;2023-03-04T01:18:04;1004.10;;;3.23;55.14
48810;BME280;40070;47.322;18.784;2023-03-04T01:20:07;1004.10;;;3.21;54.90
48810;BME280;40070;47.322;18.784;2023-03-04T01:22:09;1004.12;;;3.21;55.01
48810;BME280;40070;47.322;18.784;2023-03-04T01:24:12;1004.12;;;3.10;55.04
48810;BME280;40070;47.322;18.784;2023-03-04T01:26:14;1004.10;;;3.02;55.15
48810;BME280;40070;47.322;18.784;2023-03-04T01:28:17;1004.05;;;3.03;55.08
48810;BME280;40070;47.322;18.784;2023-03-04T01:30:19;1004.08;;;3.10;55.04
48810;BME280;40070;47.322;18.784;2023-03-04T01:32:21;1004.08;;;3.11;54.87
48810;BME280;40070;47.322;18.784;2023-03-04T01:34:24;1004.06;;;3.09;55.15
48810;BME280;40070;47.322;18.784;2023-03-04T01:36:26;1004.03;;;3.01;55.35
48810;BME280;40070;47.322;18.784;2023-03-04T01:38:28;1003.96;;;3.08;55.31
48810;BME280;40070;47.322;18.784;2023-03-04T01:40:31;1003.95;;;3.11;55.49
48810;BME280;40070;47.322;18.784;2023-03-04T01:42:34;1003.93;;;2.68;57.01
48810;BME280;40070;47.322;18.784;2023-03-04T01:44:36;1003.88;;;2.94;56.41
48810;BME280;40070;47.322;18.784;2023-03-04T01:46:39;1003.88;;;2.91;55.95
48810;BME280;40070;47.322;18.784;2023-03-04T01:48:44;1003.92;;;2.88;55.47
48810;BME280;40070;47.322;18.784;2023-03-04T01:50:47;1003.91;;;2.97;55.32
48810;BME280;40070;47.322;18.784;2023-03-04T01:52:49;1003.92;;;3.05;55.22
48810;BME280;40070;47.322;18.784;2023-03-04T01:54:52;1003.94;;;3.12;55.03
48810;BME280;40070;47.322;18.784;2023-03-04T01:56:54;1003.94;;;3.17;54.87
48810;BME280;40070;47.322;18.784;2023-03-04T02:01:25;1003.89;;;3.12;54.79
48810;BME280;40070;47.322;18.784;2023-03-04T02:03:27;1003.84;;;3.09;54.85
48810;BME280;40070;47.322;18.784;2023-03-04T02:05:30;1003.79;;;2.97;55.15
48810;BME280;40070;47.322;18.784;2023-03-04T02:07:32;1003.79;;;2.96;54.90
48810;BME280;40070;47.322;18.784;2023-03-04T02:09:34;1003.80;;;2.87;54.96
48810;BME280;40070;47.322;18.784;2023-03-04T02:11:38;1003.80;;;2.73;55.35
48810;BME280;40070;47.322;18.784;2023-03-04T02:13:41;1003.77;;;2.63;55.77
48810;BME280;40070;47.322;18.784;2023-03-04T02:15:44;1003.72;;;2.58;56.04
48810;BME280;40070;47.322;18.784;2023-03-04T02:17:47;1003.73;;;2.58;55.91
48810;BME280;40070;47.322;18.784;2023-03-04T02:19:50;1003.73;;;2.58;55.81
48810;BME280;40070;47.322;18.784;2023-03-04T02:21:56;1003.70;;;2.52;55.89
48810;BME280;40070;47.322;18.784;2023-03-04T02:26:20;1003.64;;;2.63;55.65
48810;BME280;40070;47.322;18.784;2023-03-04T02:28:23;1003.62;;;2.63;55.58
48810;BME280;40070;47.322;18.784;2023-03-04T02:30:25;1003.62;;;2.54;56.26
48810;BME280;40070;47.322;18.784;2023-03-04T02:32:27;1003.59;;;2.07;57.53
48810;BME280;40070;47.322;18.784;2023-03-04T02:34:30;1003.56;;;2.00;57.88
48810;BME280;40070;47.322;18.784;2023-03-04T02:36:34;1003.51;;;1.91;57.93
48810;BME280;40070;47.322;18.784;2023-03-04T02:38:37;1003.47;;;1.90;58.10
48810;BME280;40070;47.322;18.784;2023-03-04T02:40:40;1003.44;;;1.82;58.39
48810;BME280;40070;47.322;18.784;2023-03-04T02:42:43;1003.43;;;2.01;58.02
48810;BME280;40070;47.322;18.784;2023-03-04T02:44:46;1003.40;;;1.97;57.86
48810;BME280;40070;47.322;18.784;2023-03-04T02:46:49;1003.43;;;1.99;57.56
48810;BME280;40070;47.322;18.784;2023-03-04T02:48:51;1003.40;;;1.98;57.63
48810;BME280;40070;47.322;18.784;2023-03-04T02:50:54;1003.39;;;1.85;57.98
48810;BME280;40070;47.322;18.784;2023-03-04T02:52:56;1003.39;;;1.91;57.92
48810;BME280;40070;47.322;18.784;2023-03-04T02:54:59;1003.36;;;2.10;57.29
48810;BME280;40070;47.322;18.784;2023-03-04T02:57:02;1003.35;;;2.05;57.16
48810;BME280;40070;47.322;18.784;2023-03-04T02:59:05;1003.40;;;2.05;57.24
48810;BME280;40070;47.322;18.784;2023-03-04T03:01:07;1003.41;;;2.05;57.34
48810;BME280;40070;47.322;18.784;2023-03-04T03:03:10;1003.32;;;2.02;57.38
48810;BME280;40070;47.322;18.784;2023-03-04T03:05:12;1003.32;;;2.15;57.37
48810;BME280;40070;47.322;18.784;2023-03-04T03:07:14;1003.37;;;2.03;57.57
48810;BME280;40070;47.322;18.784;2023-03-04T03:09:17;1003.35;;;2.10;57.13
48810;BME280;40070;47.322;18.784;2023-03-04T03:11:20;1003.35;;;2.14;57.18
48810;BME280;40070;47.322;18.784;2023-03-04T03:13:22;1003.31;;;2.23;56.65
48810;BME280;40070;47.322;18.784;2023-03-04T03:15:25;1003.32;;;2.42;56.38
48810;BME280;40070;47.322;18.784;2023-03-04T03:17:27;1003.32;;;1.98;57.25
48810;BME280;40070;47.322;18.784;2023-03-04T03:19:30;1003.30;;;2.12;57.29
48810;BME280;40070;47.322;18.784;2023-03-04T03:21:32;1003.26;;;2.29;56.74
48810;BME280;40070;47.322;18.784;2023-03-04T03:23:34;1003.24;;;2.43;56.79
48810;BME280;40070;47.322;18.784;2023-03-04T03:25:37;1003.24;;;2.58;56.18
48810;BME280;40070;47.322;18.784;2023-03-04T03:27:39;1003.21;;;2.47;56.34
48810;BME280;40070;47.322;18.784;2023-03-04T03:29:42;1003.16;;;2.25;56.61
48810;BME280;40070;47.322;18.784;2023-03-04T03:31:44;1003.16;;;2.38;56.43
48810;BME280;40070;47.322;18.784;2023-03-04T03:33:46;1003.16;;;2.36;56.68
48810;BME280;40070;47.322;18.784;2023-03-04T03:35:49;1003.14;;;2.31;56.54
48810;BME280;40070;47.322;18.784;2023-03-04T03:37:51;1003.18;;;2.52;56.19
48810;BME280;40070;47.322;18.784;2023-03-04T03:39:54;1003.19;;;2.55;55.88
48810;BME280;40070;47.322;18.784;2023-03-04T03:41:56;1003.14;;;2.62;55.73
48810;BME280;40070;47.322;18.784;2023-03-04T03:43:58;1003.20;;;2.83;55.41
48810;BME280;40070;47.322;18.784;2023-03-04T03:46:01;1003.23;;;2.84;55.33
48810;BME280;40070;47.322;18.784;2023-03-04T03:48:03;1003.23;;;2.59;55.84
48810;BME280;40070;47.322;18.784;2023-03-04T03:50:06;1003.21;;;2.70;55.72
48810;BME280;40070;47.322;18.784;2023-03-04T03:52:08;1003.19;;;2.45;56.21
48810;BME280;40070;47.322;18.784;2023-03-04T03:54:10;1003.20;;;2.22;56.89
48810;BME280;40070;47.322;18.784;2023-03-04T03:56:13;1003.18;;;2.44;56.40
48810;BME280;40070;47.322;18.784;2023-03-04T03:58:15;1003.20;;;2.36;56.78
48810;BME280;40070;47.322;18.784;2023-03-04T04:00:18;1003.19;;;2.30;56.85
48810;BME280;40070;47.322;18.784;2023-03-04T04:02:20;1003.22;;;2.04;57.60
48810;BME280;40070;47.322;18.784;2023-03-04T04:04:22;1003.23;;;2.06;57.67
48810;BME280;40070;47.322;18.784;2023-03-04T04:06:25;1003.23;;;1.99;57.59
48810;BME280;40070;47.322;18.784;2023-03-04T04:08:27;1003.18;;;1.99;57.76
48810;BME280;40070;47.322;18.784;2023-03-04T04:10:30;1003.14;;;2.04;57.47
48810;BME280;40070;47.322;18.784;2023-03-04T04:12:32;1003.13;;;1.94;57.90
48810;BME280;40070;47.322;18.784;2023-03-04T04:14:34;1003.14;;;2.13;57.29
48810;BME280;40070;47.322;18.784;2023-03-04T04:16:37;1003.13;;;1.91;57.78
48810;BME280;40070;47.322;18.784;2023-03-04T04:18:39;1003.11;;;1.95;57.82
48810;BME280;40070;47.322;18.784;2023-03-04T04:20:41;1003.06;;;1.84;57.93
48810;BME280;40070;47.322;18.784;2023-03-04T04:22:44;1003.07;;;1.84;58.19
48810;BME280;40070;47.322;18.784;2023-03-04T04:24:46;1003.05;;;1.83;58.26
48810;BME280;40070;47.322;18.784;2023-03-04T04:26:49;1003.00;;;1.83;58.21
48810;BME280;40070;47.322;18.784;2023-03-04T04:28:51;1003.01;;;1.91;58.01
48810;BME280;40070;47.322;18.784;2023-03-04T04:30:53;1003.00;;;1.94;58.01
48810;BME280;40070;47.322;18.784;2023-03-04T04:32:56;1002.97;;;1.85;58.07
48810;BME280;40070;47.322;18.784;2023-03-04T04:34:58;1003.00;;;1.71;58.60
48810;BME280;40070;47.322;18.784;2023-03-04T04:37:00;1002.97;;;1.94;58.20
48810;BME280;40070;47.322;18.784;2023-03-04T04:39:03;1003.00;;;2.25;57.40
48810;BME280;40070;47.322;18.784;2023-03-04T04:41:05;1003.09;;;2.34;57.01
48810;BME280;40070;47.322;18.784;2023-03-04T04:43:13;1003.09;;;2.52;56.39
48810;BME280;40070;47.322;18.784;2023-03-04T04:45:16;1003.13;;;2.61;56.27
48810;BME280;40070;47.322;18.784;2023-03-04T04:47:18;1003.08;;;2.63;56.13
48810;BME280;40070;47.322;18.784;2023-03-04T04:49:20;1003.10;;;2.29;56.78
48810;BME280;40070;47.322;18.784;2023-03-04T04:51:23;1003.07;;;2.28;56.98
48810;BME280;40070;47.322;18.784;2023-03-04T04:53:25;1003.05;;;2.16;57.44
48810;BME280;40070;47.322;18.784;2023-03-04T04:55:27;1003.03;;;2.26;57.38
48810;BME280;40070;47.322;18.784;2023-03-04T04:57:30;1003.00;;;2.18;57.53
48810;BME280;40070;47.322;18.784;2023-03-04T04:59:32;1002.99;;;2.33;57.35
48810;BME280;40070;47.322;18.784;2023-03-04T05:01:34;1002.94;;;2.27;57.78
48810;BME280;40070;47.322;18.784;2023-03-04T05:03:37;1003.02;;;2.39;57.33
48810;BME280;40070;47.322;18.784;2023-03-04T05:05:39;1003.01;;;2.52;56.83
48810;BME280;40070;47.322;18.784;2023-03-04T05:07:42;1002.99;;;2.53;56.83
48810;BME280;40070;47.322;18.784;2023-03-04T05:09:44;1003.03;;;2.66;56.53
48810;BME280;40070;47.322;18.784;2023-03-04T05:11:46;1003.06;;;2.55;56.47
48810;BME280;40070;47.322;18.784;2023-03-04T05:13:49;1003.11;;;2.59;56.63
48810;BME280;40070;47.322;18.784;2023-03-04T05:15:52;1003.13;;;2.11;57.36
48810;BME280;40070;47.322;18.784;2023-03-04T05:17:54;1003.16;;;2.52;56.59
48810;BME280;40070;47.322;18.784;2023-03-04T05:19:57;1003.12;;;2.30;56.92
48810;BME280;40070;47.322;18.784;2023-03-04T05:21:59;1003.18;;;2.58;56.34
48810;BME280;40070;47.322;18.784;2023-03-04T05:24:02;1003.19;;;2.48;56.49
48810;BME280;40070;47.322;18.784;2023-03-04T05:26:04;1003.19;;;2.45;56.76
48810;BME280;40070;47.322;18.784;2023-03-04T05:28:07;1003.22;;;2.18;57.32
48810;BME280;40070;47.322;18.784;2023-03-04T05:30:10;1003.26;;;2.13;57.74
48810;BME280;40070;47.322;18.784;2023-03-04T05:32:12;1003.21;;;2.41;57.13
48810;BME280;40070;47.322;18.784;2023-03-04T05:34:15;1003.22;;;2.33;57.47
48810;BME280;40070;47.322;18.784;2023-03-04T05:36:17;1003.18;;;2.22;57.57
48810;BME280;40070;47.322;18.784;2023-03-04T05:38:20;1003.19;;;2.51;57.15
48810;BME280;40070;47.322;18.784;2023-03-04T05:40:22;1003.22;;;2.75;56.33
48810;BME280;40070;47.322;18.784;2023-03-04T05:42:25;1003.21;;;2.84;55.90
48810;BME280;40070;47.322;18.784;2023-03-04T05:44:27;1003.24;;;2.80;56.15
48810;BME280;40070;47.322;18.784;2023-03-04T05:46:29;1003.26;;;2.87;56.17
48810;BME280;40070;47.322;18.784;2023-03-04T05:48:32;1003.27;;;2.95;56.09
48810;BME280;40070;47.322;18.784;2023-03-04T05:50:34;1003.25;;;3.04;55.97
48810;BME280;40070;47.322;18.784;2023-03-04T05:52:36;1003.24;;;3.10;55.94
48810;BME280;40070;47.322;18.784;2023-03-04T05:54:39;1003.26;;;3.09;56.26
48810;BME280;40070;47.322;18.784;2023-03-04T05:56:41;1003.29;;;3.05;56.47
48810;BME280;40070;47.322;18.784;2023-03-04T05:58:44;1003.33;;;2.89;56.94
48810;BME280;40070;47.322;18.784;2023-03-04T06:00:46;1003.36;;;3.23;56.27
48810;BME280;40070;47.322;18.784;2023-03-04T06:02:49;1003.37;;;3.06;56.83
48810;BME280;40070;47.322;18.784;2023-03-04T06:04:51;1003.39;;;3.18;56.68
48810;BME280;40070;47.322;18.784;2023-03-04T06:06:54;1003.39;;;3.24;56.66
48810;BME280;40070;47.322;18.784;2023-03-04T06:08:56;1003.35;;;3.38;56.31
48810;BME280;40070;47.322;18.784;2023-03-04T06:10:58;1003.34;;;3.40;56.36
48810;BME280;40070;47.322;18.784;2023-03-04T06:13:01;1003.30;;;3.59;56.15
48810;BME280;40070;47.322;18.784;2023-03-04T06:15:03;1003.39;;;3.54;56.52
48810;BME280;40070;47.322;18.784;2023-03-04T06:17:06;1003.40;;;3.58;56.48
48810;BME280;40070;47.322;18.784;2023-03-04T06:19:08;1003.38;;;3.66;56.52
48810;BME280;40070;47.322;18.784;2023-03-04T06:21:11;1003.45;;;3.70;56.54
48810;BME280;40070;47.322;18.784;2023-03-04T06:23:13;1003.48;;;3.88;55.97
48810;BME280;40070;47.322;18.784;2023-03-04T06:25:16;1003.49;;;3.91;56.14
48810;BME280;40070;47.322;18.784;2023-03-04T06:27:18;1003.50;;;3.93;56.07
48810;BME280;40070;47.322;18.784;2023-03-04T06:29:20;1003.54;;;3.91;56.18
48810;BME280;40070;47.322;18.784;2023-03-04T06:31:23;1003.55;;;4.03;56.33
48810;BME280;40070;47.322;18.784;2023-03-04T06:33:25;1003.56;;;4.19;55.94
48810;BME280;40070;47.322;18.784;2023-03-04T06:35:27;1003.55;;;3.98;56.25
48810;BME280;40070;47.322;18.784;2023-03-04T06:37:30;1003.58;;;4.31;55.66
48810;BME280;40070;47.322;18.784;2023-03-04T06:39:32;1003.63;;;4.42;55.52
48810;BME280;40070;47.322;18.784;2023-03-04T06:41:35;1003.65;;;4.45;55.25
48810;BME280;40070;47.322;18.784;2023-03-04T06:43:37;1003.60;;;4.46;55.52
48810;BME280;40070;47.322;18.784;2023-03-04T06:45:39;1003.61;;;4.68;55.00
48810;BME280;40070;47.322;18.784;2023-03-04T06:47:42;1003.61;;;4.80;54.78
48810;BME280;40070;47.322;18.784;2023-03-04T06:49:44;1003.60;;;4.91;54.75
48810;BME280;40070;47.322;18.784;2023-03-04T06:51:46;1003.56;;;4.98;54.51
48810;BME280;40070;47.322;18.784;2023-03-04T06:53:49;1003.54;;;4.85;55.04
48810;BME280;40070;47.322;18.784;2023-03-04T06:55:51;1003.48;;;4.70;55.64
48810;BME280;40070;47.322;18.784;2023-03-04T06:57:53;1003.46;;;4.83;55.80
48810;BME280;40070;47.322;18.784;2023-03-04T06:59:56;1003.51;;;4.98;55.77
48810;BME280;40070;47.322;18.784;2023-03-04T07:01:58;1003.47;;;5.01;55.78
48810;BME280;40070;47.322;18.784;2023-03-04T07:04:01;1003.48;;;4.81;56.47
48810;BME280;40070;47.322;18.784;2023-03-04T07:06:03;1003.51;;;4.95;56.22
48810;BME280;40070;47.322;18.784;2023-03-04T07:08:05;1003.48;;;4.91;56.79
48810;BME280;40070;47.322;18.784;2023-03-04T07:10:08;1003.50;;;5.15;56.16
48810;BME280;40070;47.322;18.784;2023-03-04T07:12:11;1003.52;;;5.31;55.63
48810;BME280;40070;47.322;18.784;2023-03-04T07:14:13;1003.46;;;5.36;55.33
48810;BME280;40070;47.322;18.784;2023-03-04T07:16:17;1003.58;;;5.11;56.31
48810;BME280;40070;47.322;18.784;2023-03-04T07:18:20;1003.48;;;5.23;56.28
48810;BME280;40070;47.322;18.784;2023-03-04T07:20:22;1003.43;;;5.24;56.50
48810;BME280;40070;47.322;18.784;2023-03-04T07:22:24;1003.47;;;5.12;56.93
48810;BME280;40070;47.322;18.784;2023-03-04T07:24:27;1003.47;;;5.01;57.20
48810;BME280;40070;47.322;18.784;2023-03-04T07:26:29;1003.40;;;5.22;56.87
48810;BME280;40070;47.322;18.784;2023-03-04T07:28:32;1003.43;;;5.18;56.77
48810;BME280;40070;47.322;18.784;2023-03-04T07:30:34;1003.46;;;5.22;56.83
48810;BME280;40070;47.322;18.784;2023-03-04T07:32:36;1003.42;;;5.37;56.44
48810;BME280;40070;47.322;18.784;2023-03-04T07:34:39;1003.36;;;5.17;57.23
48810;BME280;40070;47.322;18.784;2023-03-04T07:36:41;1003.36;;;5.22;57.13
48810;BME280;40070;47.322;18.784;2023-03-04T07:38:44;1003.37;;;5.38;57.38
48810;BME280;40070;47.322;18.784;2023-03-04T07:40:53;1003.34;;;5.44;56.88
48810;BME280;40070;47.322;18.784;2023-03-04T07:42:55;1003.32;;;5.54;56.79
48810;BME280;40070;47.322;18.784;2023-03-04T07:44:58;1003.33;;;5.62;56.34
48810;BME280;40070;47.322;18.784;2023-03-04T07:47:00;1003.35;;;5.86;55.96
48810;BME280;40070;47.322;18.784;2023-03-04T07:49:02;1003.32;;;5.97;55.57
48810;BME280;40070;47.322;18.784;2023-03-04T07:51:08;1003.30;;;6.02;55.22
48810;BME280;40070;47.322;18.784;2023-03-04T07:53:11;1003.30;;;6.35;54.45
48810;BME280;40070;47.322;18.784;2023-03-04T07:55:14;1003.29;;;6.13;54.71
48810;BME280;40070;47.322;18.784;2023-03-04T07:57:17;1003.32;;;6.38;54.61
48810;BME280;40070;47.322;18.784;2023-03-04T07:59:19;1003.30;;;6.71;53.71
48810;BME280;40070;47.322;18.784;2023-03-04T08:01:23;1003.33;;;6.81;53.53
48810;BME280;40070;47.322;18.784;2023-03-04T08:03:26;1003.28;;;6.99;53.00
48810;BME280;40070;47.322;18.784;2023-03-04T08:05:29;1003.34;;;7.20;52.56
48810;BME280;40070;47.322;18.784;2023-03-04T08:07:31;1003.29;;;7.34;51.91
48810;BME280;40070;47.322;18.784;2023-03-04T08:09:34;1003.28;;;7.61;51.25
48810;BME280;40070;47.322;18.784;2023-03-04T08:11:36;1003.27;;;7.70;50.98
48810;BME280;40070;47.322;18.784;2023-03-04T08:13:39;1003.25;;;7.82;50.44
48810;BME280;40070;47.322;18.784;2023-03-04T08:15:41;1003.25;;;7.99;48.75
48810;BME280;40070;47.322;18.784;2023-03-04T08:17:44;1003.23;;;7.71;48.91
48810;BME280;40070;47.322;18.784;2023-03-04T08:19:46;1003.19;;;7.67;48.83
48810;BME280;40070;47.322;18.784;2023-03-04T08:21:48;1003.19;;;7.50;48.06
48810;BME280;40070;47.322;18.784;2023-03-04T08:23:51;1003.17;;;7.50;48.63
48810;BME280;40070;47.322;18.784;2023-03-04T08:25:53;1003.22;;;7.49;48.31
48810;BME280;40070;47.322;18.784;2023-03-04T08:27:56;1003.17;;;7.78;47.72
48810;BME280;40070;47.322;18.784;2023-03-04T08:29:58;1003.21;;;7.93;47.30
48810;BME280;40070;47.322;18.784;2023-03-04T08:32:00;1003.24;;;8.29;46.56
48810;BME280;40070;47.322;18.784;2023-03-04T08:34:03;1003.21;;;8.43;45.78
48810;BME280;40070;47.322;18.784;2023-03-04T08:36:05;1003.25;;;8.57;45.59
48810;BME280;40070;47.322;18.784;2023-03-04T08:38:08;1003.23;;;8.63;44.73
48810;BME280;40070;47.322;18.784;2023-03-04T08:40:11;1003.18;;;8.62;44.10
48810;BME280;40070;47.322;18.784;2023-03-04T08:42:13;1003.17;;;8.50;44.84
48810;BME280;40070;47.322;18.784;2023-03-04T08:44:16;1003.09;;;8.45;44.55
48810;BME280;40070;47.322;18.784;2023-03-04T08:46:18;1003.13;;;8.21;45.21
48810;BME280;40070;47.322;18.784;2023-03-04T08:48:20;1003.13;;;8.13;45.72
48810;BME280;40070;47.322;18.784;2023-03-04T08:50:23;1003.05;;;8.49;45.19
48810;BME280;40070;47.322;18.784;2023-03-04T08:52:27;1003.08;;;8.53;45.26
48810;BME280;40070;47.322;18.784;2023-03-04T08:54:30;1003.06;;;8.80;45.07
48810;BME280;40070;47.322;18.784;2023-03-04T08:56:32;1003.01;;;8.97;44.28
48810;BME280;40070;47.322;18.784;2023-03-04T08:58:34;1003.07;;;8.91;43.61
48810;BME280;40070;47.322;18.784;2023-03-04T09:00:38;1003.08;;;8.65;44.17
48810;BME280;40070;47.322;18.784;2023-03-04T09:02:41;1003.09;;;8.69;44.53
48810;BME280;40070;47.322;18.784;2023-03-04T09:04:43;1003.04;;;8.69;44.32
48810;BME280;40070;47.322;18.784;2023-03-04T09:06:45;1003.10;;;8.69;43.72
48810;BME280;40070;47.322;18.784;2023-03-04T09:08:48;1003.04;;;8.63;44.95
48810;BME280;40070;47.322;18.784;2023-03-04T09:10:51;1003.00;;;8.88;43.91
48810;BME280;40070;47.322;18.784;2023-03-04T09:12:54;1002.92;;;9.21;43.60
48810;BME280;40070;47.322;18.784;2023-03-04T09:14:56;1002.89;;;9.12;43.90
48810;BME280;40070;47.322;18.784;2023-03-04T09:16:58;1002.85;;;9.43;43.40
48810;BME280;40070;47.322;18.784;2023-03-04T09:19:01;1002.84;;;9.34;43.51
48810;BME280;40070;47.322;18.784;2023-03-04T09:21:03;1002.86;;;9.48;43.41
48810;BME280;40070;47.322;18.784;2023-03-04T09:23:06;1002.85;;;9.81;43.08
48810;BME280;40070;47.322;18.784;2023-03-04T09:25:09;1002.89;;;9.53;43.45
48810;BME280;40070;47.322;18.784;2023-03-04T09:27:12;1002.85;;;9.86;43.04
48810;BME280;40070;47.322;18.784;2023-03-04T09:29:14;1002.84;;;9.81;43.06
48810;BME280;40070;47.322;18.784;2023-03-04T09:31:17;1002.82;;;9.95;43.21
48810;BME280;40070;47.322;18.784;2023-03-04T09:33:19;1002.83;;;10.20;42.71
48810;BME280;40070;47.322;18.784;2023-03-04T09:35:22;1002.78;;;10.23;42.53
48810;BME280;40070;47.322;18.784;2023-03-04T09:37:24;1002.74;;;10.19;42.15
48810;BME280;40070;47.322;18.784;2023-03-04T09:39:26;1002.78;;;10.31;41.68
48810;BME280;40070;47.322;18.784;2023-03-04T09:41:33;1002.75;;;10.28;41.57
48810;BME280;40070;47.322;18.784;2023-03-04T09:43:38;1002.72;;;10.22;41.69
48810;BME280;40070;47.322;18.784;2023-03-04T09:45:42;1002.66;;;10.57;41.30
48810;BME280;40070;47.322;18.784;2023-03-04T09:47:47;1002.71;;;10.36;40.60
48810;BME280;40070;47.322;18.784;2023-03-04T09:50:07;1002.62;;;10.24;40.85
48810;BME280;40070;47.322;18.784;2023-03-04T09:59:34;1002.59;;;10.08;41.77
48810;BME280;40070;47.322;18.784;2023-03-04T10:01:49;1002.54;;;10.23;42.05
48810;BME280;40070;47.322;18.784;2023-03-04T10:03:54;1002.54;;;10.50;42.11
48810;BME280;40070;47.322;18.784;2023-03-04T10:06:01;1002.51;;;10.76;41.68
48810;BME280;40070;47.322;18.784;2023-03-04T10:10:32;1002.43;;;10.64;41.79
48810;BME280;40070;47.322;18.784;2023-03-04T10:12:37;1002.41;;;10.75;41.74
48810;BME280;40070;47.322;18.784;2023-03-04T10:14:45;1002.46;;;10.90;41.65
48810;BME280;40070;47.322;18.784;2023-03-04T10:16:58;1002.33;;;11.05;41.48
48810;BME280;40070;47.322;18.784;2023-03-04T10:19:17;1002.36;;;11.33;40.84
48810;BME280;40070;47.322;18.784;2023-03-04T10:21:29;1002.36;;;11.41;41.00
48810;BME280;40070;47.322;18.784;2023-03-04T10:23:33;1002.26;;;11.53;40.47
48810;BME280;40070;47.322;18.784;2023-03-04T10:25:37;1002.27;;;11.08;41.13
48810;BME280;40070;47.322;18.784;2023-03-04T10:27:43;1002.28;;;11.26;41.01
48810;BME280;40070;47.322;18.784;2023-03-04T10:29:49;1002.30;;;11.54;40.90
48810;BME280;40070;47.322;18.784;2023-03-04T10:31:52;1002.27;;;11.28;40.95
48810;BME280;40070;47.322;18.784;2023-03-04T10:33:54;1002.25;;;11.40;41.37
48810;BME280;40070;47.322;18.784;2023-03-04T10:35:59;1002.20;;;11.57;41.13
48810;BME280;40070;47.322;18.784;2023-03-04T10:38:02;1002.14;;;12.06;40.69
48810;BME280;40070;47.322;18.784;2023-03-04T10:40:10;1002.14;;;12.20;39.97
48810;BME280;40070;47.322;18.784;2023-03-04T10:42:22;1002.14;;;12.03;40.21
48810;BME280;40070;47.322;18.784;2023-03-04T10:44:25;1002.10;;;12.09;38.53
48810;BME280;40070;47.322;18.784;2023-03-04T10:46:28;1002.07;;;12.35;38.78
48810;BME280;40070;47.322;18.784;2023-03-04T10:48:31;1001.98;;;12.08;37.87
48810;BME280;40070;47.322;18.784;2023-03-04T10:50:33;1001.94;;;12.03;38.60
48810;BME280;40070;47.322;18.784;2023-03-04T10:52:40;1001.83;;;12.51;38.28
48810;BME280;40070;47.322;18.784;2023-03-04T10:54:51;1001.90;;;12.56;37.96
48810;BME280;40070;47.322;18.784;2023-03-04T10:56:58;1001.92;;;12.66;37.80
48810;BME280;40070;47.322;18.784;2023-03-04T11:01:28;1001.84;;;12.31;37.61
48810;BME280;40070;47.322;18.784;2023-03-04T11:03:34;1001.88;;;12.54;37.99
48810;BME280;40070;47.322;18.784;2023-03-04T11:05:36;1001.82;;;12.69;37.04
48810;BME280;40070;47.322;18.784;2023-03-04T11:07:39;1001.74;;;12.76;37.28
48810;BME280;40070;47.322;18.784;2023-03-04T11:09:43;1001.67;;;12.89;36.91
48810;BME280;40070;47.322;18.784;2023-03-04T11:11:45;1001.72;;;12.87;37.72
48810;BME280;40070;47.322;18.784;2023-03-04T11:13:52;1001.71;;;12.70;36.38
48810;BME280;40070;47.322;18.784;2023-03-04T11:16:00;1001.68;;;12.65;36.04